Portada
METAR-TAF:

METAR-TAF

Aeroports :

Honiara, Guadalcanal, Illes Salomó

latitud: 09-25S, longitud: 160-03E, altitud: 8 m

Observació

L'informe es va fer fa 21 minuts, a les 21:00 UTC
Vent 5 kt del Sud/Sud-Est
Temperatura 26°C
Humitat 79%
Pressió 1013 hPa
Visibilitat 10 km o més
Escasses núvols a una alçada de 1800 ft
Escasses núvols a una alçada de 1900 ft, Cumulonimbus.

METAR: AGGH 172100Z 16005KT 9999 FEW018 FEW019CB 26/22 Q1013

Hora: 08:21 (21:21 UTC)

Pronòstic

L'informe es va fer fa 4 hores i 31 minuts, a les 16:50 UTC
Pronòstic vàlid del 17 a les 18 UTC al 18 a les 18 UTC
Vent 12 kt del Est/Nord-Est
Visibilitat: 1009 m
Escasses núvols a una alçada de 1600 ft
Núvols disperses a una alçada de 2700 ft

TAF: AGGH 171650Z 1718/1818 07012KT 9999 FEW016 SCT027 T 23 26 31 32 Q 1009 1011 1011 1009

Observacions i pronòstics meteorològics de més de 4000 aeroports (METAR i TAF).

Les estacions disponibles són els punts grocs i vermells al mapa.

Posi el ratolí al punt desitjat per veure el nom de l'estació.

Feu clic per veure les observacions i els pronòstics meteorològics.

Per canviar el mapa: feu clic els botons verds amb una creu de color negre per apropar; al botó verd amb un guió per allunyar la imatge; o en les fletxes verdes per a mapes adjacents.


METAR-TAF: